RYR5TN EDDN-EGSS
Flight info
| Callsign | RYR5TN |
|---|---|
| Flight time | N/A |
| Altitude | 38000 |
| Route | SULUS1G SULUS L604 BIGGE DCT NOGRO M40 RINIS |
| Aircraft | B738/M-SDE2E3FGHIRWXY/LB1 |
Departure
| Time | 2026-05-05 10:11 |
|---|---|
| Airport | Nuremberg Airport (EDDN) |
Arrival
| Time | N/A |
|---|---|
| Airport | London Stansted Airport (EGSS) |
| Time | Latitude | Longitude | Altitude | Speed | Heading |
|---|---|---|---|---|---|
| 2026-05-05 09:50 | 49.49600 | 11.08098 | 1027 ft | 0 kts | 188° |
| 2026-05-05 10:08 | 49.49579 | 11.08095 | 1024 ft | 7 kts | 180° |
| 2026-05-05 10:08 | 49.49547 | 11.08152 | 1026 ft | 8 kts | 99° |
| 2026-05-05 10:09 | 49.49539 | 11.08243 | 1027 ft | 10 kts | 98° |
| 2026-05-05 10:09 | 49.49568 | 11.08352 | 1030 ft | 14 kts | 13° |
| 2026-05-05 10:09 | 49.49611 | 11.08481 | 1034 ft | 18 kts | 98° |
| 2026-05-05 10:09 | 49.49589 | 11.08699 | 1036 ft | 23 kts | 99° |
| 2026-05-05 10:10 | 49.49562 | 11.08973 | 1038 ft | 28 kts | 98° |
| 2026-05-05 10:10 | 49.49533 | 11.09270 | 1043 ft | 27 kts | 97° |
| 2026-05-05 10:10 | 49.49606 | 11.09518 | 1049 ft | 26 kts | 51° |
| 2026-05-05 10:10 | 49.49701 | 11.09521 | 1051 ft | 16 kts | 280° |
| 2026-05-05 10:11 | 49.49743 | 11.09091 | 1044 ft | 76 kts | 279° |
| 2026-05-05 10:11 | 49.49857 | 11.07933 | 1028 ft | 140 kts | 278° |
| 2026-05-05 10:11 | 49.50014 | 11.06234 | 1272 ft | 172 kts | 279° |
| 2026-05-05 10:11 | 49.50190 | 11.04359 | 1956 ft | 183 kts | 281° |
| 2026-05-05 10:12 | 49.50386 | 11.02308 | 2448 ft | 208 kts | 279° |
| 2026-05-05 10:12 | 49.50603 | 10.99967 | 2683 ft | 235 kts | 279° |
| 2026-05-05 10:12 | 49.50849 | 10.97399 | 3052 ft | 254 kts | 284° |
| 2026-05-05 10:12 | 49.51671 | 10.94945 | 3610 ft | 266 kts | 312° |
| 2026-05-05 10:13 | 49.53114 | 10.93206 | 4458 ft | 270 kts | 332° |
| 2026-05-05 10:13 | 49.54938 | 10.92446 | 5282 ft | 276 kts | 360° |
| 2026-05-05 10:13 | 49.56896 | 10.92515 | 6192 ft | 282 kts | 1° |
| 2026-05-05 10:13 | 49.58844 | 10.92594 | 7106 ft | 284 kts | 1° |
| 2026-05-05 10:14 | 49.60833 | 10.92668 | 7936 ft | 289 kts | 1° |
| 2026-05-05 10:14 | 49.62867 | 10.92737 | 8698 ft | 296 kts | 1° |
| 2026-05-05 10:14 | 49.64941 | 10.92796 | 9510 ft | 301 kts | 1° |
| 2026-05-05 10:14 | 49.67058 | 10.92851 | 10197 ft | 310 kts | 0° |
| 2026-05-05 10:15 | 49.69303 | 10.92903 | 10418 ft | 335 kts | 359° |
| 2026-05-05 10:15 | 49.71676 | 10.92363 | 10635 ft | 356 kts | 341° |
| 2026-05-05 10:15 | 49.74045 | 10.91087 | 11204 ft | 365 kts | 338° |
| 2026-05-05 10:15 | 49.76447 | 10.89735 | 11990 ft | 368 kts | 338° |
| 2026-05-05 10:16 | 49.78857 | 10.88386 | 12871 ft | 368 kts | 338° |
| 2026-05-05 10:16 | 49.81282 | 10.87048 | 13659 ft | 373 kts | 339° |
| 2026-05-05 10:16 | 49.83757 | 10.85699 | 14318 ft | 379 kts | 339° |
| 2026-05-05 10:16 | 49.86266 | 10.84342 | 14962 ft | 384 kts | 339° |
| 2026-05-05 10:17 | 49.88801 | 10.82978 | 15619 ft | 388 kts | 339° |
| 2026-05-05 10:17 | 49.91371 | 10.81596 | 16263 ft | 392 kts | 339° |
| 2026-05-05 10:17 | 49.93956 | 10.80208 | 16965 ft | 394 kts | 338° |
| 2026-05-05 10:17 | 49.96527 | 10.78824 | 17633 ft | 398 kts | 338° |
| 2026-05-05 10:18 | 49.99161 | 10.77405 | 18221 ft | 403 kts | 338° |
| 2026-05-05 10:18 | 50.01827 | 10.75967 | 18774 ft | 407 kts | 338° |
| 2026-05-05 10:18 | 50.04515 | 10.74515 | 19373 ft | 409 kts | 338° |
| 2026-05-05 10:18 | 50.07160 | 10.72882 | 19948 ft | 409 kts | 327° |
| 2026-05-05 10:19 | 50.09353 | 10.70140 | 20497 ft | 404 kts | 310° |
| 2026-05-05 10:19 | 50.11269 | 10.66923 | 21087 ft | 406 kts | 309° |
| 2026-05-05 10:19 | 50.13193 | 10.63673 | 21596 ft | 410 kts | 310° |
| 2026-05-05 10:19 | 50.15156 | 10.60418 | 22115 ft | 414 kts | 310° |
| 2026-05-05 10:20 | 50.16474 | 10.58257 | 22476 ft | 416 kts | 311° |